createdAt,value
2023-11-12T00:01:36.457Z,76.50
2023-11-12T00:06:29.527Z,76.27
2023-11-12T00:11:23.934Z,76.14
2023-11-12T00:16:18.675Z,75.98
2023-11-12T00:21:15.231Z,75.96
2023-11-12T00:26:09.056Z,76.21
2023-11-12T00:31:02.672Z,75.87
2023-11-12T00:35:57.451Z,75.07
2023-11-12T00:40:50.706Z,75.15
2023-11-12T00:45:43.710Z,74.44
2023-11-12T00:50:36.849Z,73.64
2023-11-12T00:55:31.244Z,73.35
2023-11-12T01:00:25.305Z,72.90
2023-11-12T01:05:18.822Z,72.74
2023-11-12T01:10:12.315Z,71.76
2023-11-12T01:15:07.576Z,71.84
2023-11-12T01:20:01.735Z,71.70
2023-11-12T01:24:54.818Z,71.47
2023-11-12T01:29:47.801Z,71.39
2023-11-12T01:34:42.180Z,71.32
2023-11-12T01:39:35.170Z,71.40
2023-11-12T01:44:28.449Z,71.41
2023-11-12T01:49:22.430Z,71.33
2023-11-12T01:54:17.996Z,70.78
2023-11-12T01:59:13.073Z,71.02
2023-11-12T02:04:09.844Z,71.22
2023-11-12T02:09:03.028Z,70.96
2023-11-12T02:13:57.640Z,70.76
2023-11-12T02:18:50.721Z,70.55
2023-11-12T02:23:45.210Z,70.82
2023-11-12T02:28:40.011Z,70.48
2023-11-12T02:33:33.564Z,69.94
2023-11-12T02:38:26.797Z,69.62
2023-11-12T02:43:21.381Z,69.39
2023-11-12T02:48:14.564Z,69.30
2023-11-12T02:53:08.841Z,68.69
2023-11-12T02:58:02.288Z,68.28
2023-11-12T03:02:59.498Z,68.18
2023-11-12T03:07:52.816Z,67.58
2023-11-12T03:12:45.893Z,67.41
2023-11-12T03:17:39.159Z,67.27
2023-11-12T03:22:34.939Z,66.64
2023-11-12T03:27:28.194Z,66.75
2023-11-12T03:32:22.734Z,66.31
2023-11-12T03:37:15.712Z,65.91
2023-11-12T03:42:12.802Z,65.44
2023-11-12T03:47:06.347Z,65.40
2023-11-12T03:51:59.936Z,64.80
2023-11-12T03:56:53.006Z,64.24
2023-11-12T04:01:47.991Z,64.11
2023-11-12T04:06:41.074Z,63.85
2023-11-12T04:11:36.580Z,63.38
2023-11-12T04:16:29.653Z,63.08
2023-11-12T04:21:24.144Z,62.98
2023-11-12T04:26:17.592Z,62.30
2023-11-12T04:31:10.737Z,61.97
2023-11-12T04:36:03.858Z,61.66
2023-11-12T04:40:58.640Z,61.04
2023-11-12T04:45:51.773Z,60.86
2023-11-12T04:50:44.849Z,61.32
2023-11-12T04:55:38.123Z,61.36
2023-11-12T05:00:32.684Z,60.82
2023-11-12T05:05:25.702Z,60.92
2023-11-12T05:10:18.876Z,60.12
2023-11-12T05:15:12.089Z,60.12
2023-11-12T05:20:07.106Z,59.70
2023-11-12T05:25:00.120Z,59.85
2023-11-12T05:29:53.967Z,59.53
2023-11-12T05:34:47.049Z,59.46
2023-11-12T05:39:41.682Z,59.53
2023-11-12T05:44:34.722Z,59.93
2023-11-12T05:49:27.808Z,60.44
2023-11-12T05:54:20.908Z,60.90
2023-11-12T05:59:15.403Z,61.09
2023-11-12T06:04:08.642Z,61.24
2023-11-12T06:09:03.528Z,61.38
2023-11-12T06:13:56.640Z,61.35
2023-11-12T06:18:51.176Z,60.96
2023-11-12T06:23:45.749Z,60.98
2023-11-12T06:28:38.865Z,60.93
2023-11-12T06:33:31.967Z,60.51
2023-11-12T06:38:26.804Z,60.10
2023-11-12T06:43:19.752Z,59.39
2023-11-12T06:48:12.761Z,59.51
2023-11-12T06:53:05.734Z,59.24
2023-11-12T06:58:00.321Z,58.83
2023-11-12T07:02:55.442Z,58.69
2023-11-12T07:07:48.411Z,58.09
2023-11-12T07:12:41.525Z,58.26
2023-11-12T07:17:36.968Z,57.49
2023-11-12T07:22:32.048Z,58.04
2023-11-12T07:27:25.206Z,57.10
2023-11-12T07:32:18.233Z,56.64
2023-11-12T07:37:12.930Z,56.68
2023-11-12T07:42:06.202Z,56.44
2023-11-12T07:46:59.270Z,56.17
2023-11-12T07:51:53.214Z,56.01
2023-11-12T07:56:47.951Z,56.26
2023-11-12T08:01:41.047Z,56.28
2023-11-12T08:06:34.117Z,54.97
2023-11-12T08:11:29.151Z,54.94
2023-11-12T08:16:24.186Z,54.28
2023-11-12T08:21:17.272Z,55.02
2023-11-12T08:26:10.248Z,54.93
2023-11-12T08:31:04.555Z,53.88
2023-11-12T08:35:59.124Z,53.03
2023-11-12T08:40:52.135Z,52.67
2023-11-12T08:45:45.225Z,51.67
2023-11-12T08:50:38.237Z,51.79
2023-11-12T08:55:33.009Z,50.83
2023-11-12T09:00:26.060Z,50.56
2023-11-12T09:05:20.051Z,49.15
2023-11-12T09:10:13.136Z,49.11
2023-11-12T09:15:10.758Z,48.60
2023-11-12T09:20:05.231Z,48.35
2023-11-12T09:25:08.782Z,47.86
2023-11-12T09:30:04.986Z,47.00
2023-11-12T09:34:59.384Z,44.81
2023-11-12T09:39:54.127Z,43.05
2023-11-12T09:44:49.978Z,43.42
2023-11-12T09:49:43.676Z,43.05
2023-11-12T09:54:39.529Z,42.92
2023-11-12T09:59:32.586Z,42.63
2023-11-12T10:04:25.713Z,43.06
2023-11-12T10:09:27.756Z,41.37
2023-11-12T10:14:25.376Z,40.98
2023-11-12T10:19:18.554Z,40.45
2023-11-12T10:24:11.674Z,40.96
2023-11-12T10:29:07.352Z,40.18
2023-11-12T10:34:02.222Z,39.99
2023-11-12T10:38:55.436Z,40.26
2023-11-12T10:43:58.129Z,40.88
2023-11-12T10:48:53.614Z,40.48
2023-11-12T10:53:50.722Z,41.48
2023-11-12T10:58:47.467Z,42.50
2023-11-12T11:03:40.561Z,42.20
2023-11-12T11:08:35.827Z,42.03
2023-11-12T11:13:30.688Z,42.02
2023-11-12T11:18:42.392Z,42.10
2023-11-12T11:23:42.034Z,42.15
2023-11-12T11:28:36.482Z,41.92
2023-11-12T11:33:32.174Z,41.82
2023-11-12T11:38:26.207Z,42.59
2023-11-12T11:43:32.659Z,42.44
2023-11-12T11:48:27.441Z,42.70
2023-11-12T11:53:20.961Z,43.26
2023-11-12T11:58:15.660Z,42.60
2023-11-12T12:03:18.560Z,41.64
2023-11-12T12:08:14.826Z,41.97
2023-11-12T12:13:11.773Z,42.51
2023-11-12T12:18:18.326Z,43.05
2023-11-12T12:23:13.516Z,43.48
2023-11-12T12:28:07.955Z,43.96
2023-11-12T12:33:15.399Z,43.92
2023-11-12T12:38:08.636Z,43.70
2023-11-12T12:43:08.318Z,44.42
2023-11-12T12:48:01.381Z,44.39
2023-11-12T12:53:13.879Z,44.31
2023-11-12T12:58:08.419Z,44.57
2023-11-12T13:03:02.134Z,44.06
2023-11-12T13:07:56.078Z,44.31
2023-11-12T13:12:51.672Z,44.08
2023-11-12T13:17:46.794Z,44.00
2023-11-12T13:22:41.049Z,44.36
2023-11-12T13:27:35.049Z,44.96
2023-11-12T13:32:29.590Z,45.05
2023-11-12T13:37:24.299Z,45.46
2023-11-12T13:42:18.201Z,45.75
2023-11-12T13:47:11.187Z,45.54
2023-11-12T13:52:07.233Z,46.13
2023-11-12T13:57:01.728Z,46.60
2023-11-12T14:01:55.276Z,47.17
2023-11-12T14:07:18.140Z,47.68
2023-11-12T14:12:41.219Z,47.87
2023-11-12T14:18:02.428Z,48.79
2023-11-12T14:28:28.512Z,48.85
2023-11-12T14:33:30.792Z,48.75
2023-11-12T14:38:23.991Z,48.74
2023-11-12T14:43:18.427Z,49.21
2023-11-12T14:48:14.161Z,49.68
2023-11-12T14:53:09.719Z,49.75
2023-11-12T14:58:02.919Z,49.69
2023-11-12T15:02:58.929Z,49.52
2023-11-12T15:07:52.317Z,49.58
2023-11-12T15:12:46.124Z,49.56
2023-11-12T15:22:58.669Z,50.69
2023-11-12T15:27:52.474Z,51.61
2023-11-12T15:32:54.268Z,52.26
2023-11-12T15:37:47.378Z,52.71
2023-11-12T15:42:44.072Z,53.05
2023-11-12T15:47:39.929Z,52.85
2023-11-12T15:52:33.071Z,53.00
2023-11-12T15:57:26.437Z,52.86
2023-11-12T16:02:20.882Z,52.96
2023-11-12T16:07:17.256Z,53.27
2023-11-12T16:12:10.411Z,53.22
2023-11-12T16:17:03.345Z,53.16
2023-11-12T16:21:57.820Z,53.28
2023-11-12T16:26:56.429Z,53.14
2023-11-12T16:31:51.416Z,53.92
2023-11-12T16:36:47.137Z,54.09
2023-11-12T16:41:47.486Z,54.10
2023-11-12T16:46:44.972Z,54.27
2023-11-12T16:51:40.269Z,54.33
2023-11-12T16:56:33.309Z,54.34
2023-11-12T17:01:30.616Z,54.18
2023-11-12T17:06:23.737Z,53.89
2023-11-12T17:11:26.309Z,53.95
2023-11-12T17:16:20.224Z,53.83
2023-11-12T17:21:15.048Z,54.08
2023-11-12T17:26:08.242Z,53.55
2023-11-12T17:31:01.366Z,53.97
2023-11-12T17:35:54.545Z,53.92
2023-11-12T17:40:49.134Z,53.95
2023-11-12T17:45:42.742Z,54.23
2023-11-12T17:50:36.259Z,54.93
2023-11-12T17:55:29.293Z,55.09
2023-11-12T18:00:24.268Z,55.74
2023-11-12T18:05:17.644Z,56.19
2023-11-12T18:10:12.709Z,56.03
2023-11-12T18:15:08.359Z,55.62
2023-11-12T18:20:04.417Z,55.67
2023-11-12T18:24:59.698Z,55.25
2023-11-12T18:29:55.231Z,54.74
2023-11-12T18:34:49.326Z,54.38
2023-11-12T18:39:46.310Z,54.80
2023-11-12T18:44:39.897Z,54.91
2023-11-12T18:49:36.439Z,54.74
2023-11-12T18:54:32.914Z,53.71
2023-11-12T18:59:31.627Z,54.11
2023-11-12T19:04:28.150Z,54.71
2023-11-12T19:09:22.078Z,56.02
2023-11-12T19:14:17.990Z,55.33
2023-11-12T19:19:16.425Z,54.93
2023-11-12T19:24:11.635Z,55.16
2023-11-12T19:29:05.282Z,54.14
2023-11-12T19:34:02.572Z,53.31
2023-11-12T19:38:57.930Z,54.26
2023-11-12T19:44:03.772Z,55.26
2023-11-12T19:49:00.559Z,54.96
2023-11-12T19:53:54.619Z,56.28
2023-11-12T19:59:02.076Z,56.70
2023-11-12T20:03:57.035Z,57.07
2023-11-12T20:08:54.894Z,57.59
2023-11-12T20:13:53.499Z,57.33
2023-11-12T20:18:47.935Z,58.45
2023-11-12T20:23:41.396Z,57.91
2023-11-12T20:28:34.858Z,59.04
2023-11-12T20:33:28.049Z,59.03
2023-11-12T20:38:22.689Z,59.57
2023-11-12T20:43:15.768Z,59.64
2023-11-12T20:48:08.956Z,60.35
2023-11-12T20:53:01.988Z,61.20
2023-11-12T20:57:56.372Z,61.38
2023-11-12T21:02:50.376Z,62.30
2023-11-12T21:07:43.578Z,61.27
2023-11-12T21:12:36.620Z,61.25
2023-11-12T21:17:32.405Z,58.45
2023-11-12T21:22:25.430Z,57.68
2023-11-12T21:27:18.480Z,56.20
2023-11-12T21:32:11.611Z,55.81
2023-11-12T21:37:06.894Z,56.83
2023-11-12T21:42:01.323Z,57.18
2023-11-12T21:46:54.430Z,57.38
2023-11-12T21:51:47.478Z,58.22
2023-11-12T21:56:41.883Z,56.27
2023-11-12T22:01:34.836Z,56.07
2023-11-12T22:06:28.016Z,56.11
2023-11-12T22:11:21.142Z,56.46
2023-11-12T22:16:16.605Z,55.90
2023-11-12T22:21:09.751Z,56.21
2023-11-12T22:26:03.776Z,56.50
2023-11-12T22:30:56.775Z,56.65
2023-11-12T22:35:51.272Z,56.13
2023-11-12T22:40:44.395Z,57.12
2023-11-12T22:45:38.975Z,56.91
2023-11-12T22:50:31.915Z,57.81
2023-11-12T22:55:27.188Z,58.76
2023-11-12T23:05:38.982Z,60.27
2023-11-12T23:10:39.383Z,60.90
2023-11-12T23:15:34.706Z,61.99
2023-11-12T23:20:27.894Z,62.79
2023-11-12T23:25:22.431Z,63.10
2023-11-12T23:30:15.691Z,62.93
2023-11-12T23:35:09.733Z,64.06
2023-11-12T23:40:02.836Z,64.35
2023-11-12T23:44:57.429Z,64.10
2023-11-12T23:49:50.549Z,63.93
2023-11-12T23:54:43.846Z,63.79
2023-11-12T23:59:36.818Z,64.29
